Terminal Aerodrome Forecast
Issued by NWS Chicago, IL

Home | Current Version | Previous Version | Graphics & Text | Print | Product List | Glossary On
Versions: 1 2 3 4 5 6 7 8 9 10 11 12 13 14 15 16 17 18 19 20 21 22 23 24 25 26
142
FTUS43 KLOT 221504 AAA
TAFRFD
TAF AMD
KRFD 221504Z 2215/2312 07010KT P6SM FEW035
     FM222000 10007KT P6SM SCT150 BKN250
     FM230800 13006KT P6SM OVC090=

USA.gov is the U.S. government's official web portal to all federal, state and local government web resources and services.